Aviation Digital Data Service (ADDS)

Output produced by METARs form (0300 UTC 21 August 2017)
found at http://aviationweather.gov/adds/metars/
 
KBVI 202321Z 2100/2124 00000KT P6SM SKC 
     FM211700 23006KT P6SM SCT060 AMD NOT SKED